Time;durP1;ratioP1;P1;durP2;ratioP2;P2;SDS_P1;SDS_P2;PMS_P1;PMS_P2;Temp;Humidity;BMP_temperature;BMP_pressure;BME280_temperature;BME280_humidity;BME280_pressure;Samples;Min_cycle;Max_cycle;Signal;HPM_P1;HPM_P2
2021/03/08 00:02:26;;;;;;;30.35;18.05;;;;;;;2.39;98.98;101055.81;4981463;28;20046;-52
2021/03/08 00:04:54;;;;;;;36.55;18.70;;;;;;;2.28;100.00;101055.13;4979757;28;20043;-54
2021/03/08 00:07:21;;;;;;;32.78;19.38;;;;;;;2.25;100.00;101054.94;4978593;28;20054;-55
2021/03/08 00:09:48;;;;;;;32.55;18.90;;;;;;;2.24;100.00;101057.38;4978807;28;20501;-54
2021/03/08 00:12:14;;;;;;;34.35;19.27;;;;;;;2.14;100.00;101062.59;4981169;28;20054;-53
2021/03/08 00:14:41;;;;;;;32.63;19.52;;;;;;;2.15;100.00;101070.28;4978640;28;20428;-52
2021/03/08 00:17:08;;;;;;;32.80;18.48;;;;;;;2.18;100.00;101077.19;4979727;28;20050;-55
2021/03/08 00:19:35;;;;;;;31.30;18.58;;;;;;;2.19;100.00;101077.28;4979402;28;20145;-51
2021/03/08 00:22:02;;;;;;;31.30;19.75;;;;;;;2.13;100.00;101074.38;4979966;28;20049;-53
2021/03/08 00:24:29;;;;;;;34.25;18.80;;;;;;;2.21;100.00;101067.25;4980878;28;20050;-52
2021/03/08 00:26:55;;;;;;;31.67;18.08;;;;;;;2.19;100.00;101069.69;4979345;28;20085;-50
2021/03/08 00:29:22;;;;;;;34.22;19.67;;;;;;;2.09;100.00;101074.06;4978496;28;20054;-52
2021/03/08 00:31:49;;;;;;;32.90;19.15;;;;;;;2.14;100.00;101075.25;4978036;28;20055;-56
2021/03/08 00:34:15;;;;;;;34.15;19.02;;;;;;;2.19;100.00;101087.38;4980618;28;20137;-52
2021/03/08 00:36:42;;;;;;;29.70;18.65;;;;;;;2.27;100.00;101090.44;4977933;28;20050;-56
2021/03/08 00:39:09;;;;;;;27.95;17.33;;;;;;;2.18;100.00;101082.25;4980452;28;20047;-49
2021/03/08 00:41:35;;;;;;;29.10;18.10;;;;;;;2.07;100.00;101073.06;4979116;28;20046;-49
2021/03/08 00:44:02;;;;;;;30.95;17.45;;;;;;;2.00;100.00;101067.63;4979941;28;20057;-53
2021/03/08 00:46:28;;;;;;;28.15;16.55;;;;;;;2.12;100.00;101071.72;4980272;28;20050;-52
2021/03/08 00:48:55;;;;;;;26.85;17.58;;;;;;;2.08;100.00;101063.09;4979259;28;20062;-51
2021/03/08 00:51:22;;;;;;;29.40;16.35;;;;;;;2.21;100.00;101082.44;4977497;28;20069;-53
2021/03/08 00:53:48;;;;;;;25.73;16.10;;;;;;;2.12;100.00;101085.22;4978024;28;20047;-50
2021/03/08 00:56:15;;;;;;;25.52;15.73;;;;;;;1.99;100.00;101082.69;4980039;28;20046;-52
2021/03/08 00:58:41;;;;;;;25.88;15.02;;;;;;;2.04;100.00;101073.75;4977596;28;20138;-57
2021/03/08 01:01:08;;;;;;;27.17;14.77;;;;;;;1.96;100.00;101065.66;4979930;28;20061;-51
2021/03/08 01:03:35;;;;;;;28.50;15.15;;;;;;;2.10;100.00;101070.75;4979065;28;20053;-54
2021/03/08 01:06:01;;;;;;;26.35;15.35;;;;;;;2.05;100.00;101078.03;4979146;28;20151;-51
2021/03/08 01:08:29;;;;;;;22.52;14.02;;;;;;;2.19;100.00;101072.22;4979928;28;20043;-53
2021/03/08 01:10:56;;;;;;;25.05;13.73;;;;;;;2.39;100.00;101065.06;4978593;28;20050;-56
2021/03/08 01:13:24;;;;;;;20.58;13.13;;;;;;;2.26;99.30;101069.31;4978262;28;20512;-53
2021/03/08 01:15:53;;;;;;;23.08;13.13;;;;;;;2.20;99.55;101060.47;4977346;28;20113;-53
2021/03/08 01:18:21;;;;;;;23.40;12.95;;;;;;;1.99;100.00;101067.53;4979694;28;20358;-49
2021/03/08 01:20:49;;;;;;;24.35;13.13;;;;;;;1.91;100.00;101061.97;4977373;28;20050;-55
2021/03/08 01:23:15;;;;;;;21.10;12.68;;;;;;;1.97;100.00;101074.13;4979789;28;20087;-55
2021/03/08 01:25:42;;;;;;;20.92;12.57;;;;;;;2.13;100.00;101066.78;4977148;28;20057;-51
2021/03/08 01:28:09;;;;;;;21.58;11.95;;;;;;;1.93;100.00;101067.97;4979462;28;20070;-52
2021/03/08 01:30:43;;;;;;;20.08;12.02;;;;;;;1.83;100.00;101064.75;4977967;28;20042;-50
2021/03/08 01:33:10;;;;;;;19.85;11.25;;;;;;;1.85;100.00;101066.63;4978864;28;20583;-54
2021/03/08 01:35:38;;;;;;;17.73;11.80;;;;;;;1.92;100.00;101068.75;4977241;28;20479;-55
2021/03/08 01:38:05;;;;;;;20.95;11.68;;;;;;;1.98;100.00;101066.63;4979332;28;20549;-53
2021/03/08 01:40:37;;;;;;;19.02;11.00;;;;;;;2.11;100.00;101062.41;4978625;28;20038;-54
2021/03/08 01:43:04;;;;;;;21.02;10.35;;;;;;;2.28;98.03;101057.66;4979207;28;20623;-54
2021/03/08 01:45:31;;;;;;;20.80;11.10;;;;;;;2.02;98.28;101066.06;4978673;28;20365;-53
2021/03/08 01:47:58;;;;;;;21.27;10.80;;;;;;;1.92;99.34;101078.00;4979091;28;20462;-52
2021/03/08 01:50:35;;;;;;;16.98;10.55;;;;;;;1.84;99.94;101081.66;4979545;28;20408;-55
2021/03/08 01:53:04;;;;;;;18.95;10.70;;;;;;;1.79;100.00;101074.63;4978063;28;20441;-55
2021/03/08 01:55:31;;;;;;;17.48;10.80;;;;;;;1.78;100.00;101079.59;4978049;28;20042;-53
2021/03/08 01:57:58;;;;;;;18.98;11.30;;;;;;;1.73;100.00;101076.75;4978226;28;20046;-55
2021/03/08 02:00:27;;;;;;;15.63;9.82;;;;;;;1.75;100.00;101077.72;4979365;28;20050;-51
2021/03/08 02:02:54;;;;;;;18.23;10.82;;;;;;;1.72;100.00;101075.03;4977172;28;20085;-56
2021/03/08 02:05:27;;;;;;;18.60;10.27;;;;;;;1.64;100.00;101073.63;4978912;28;20057;-50
2021/03/08 02:07:55;;;;;;;17.50;10.57;;;;;;;1.71;100.00;101079.94;4977387;28;20054;-55
2021/03/08 02:10:22;;;;;;;17.52;10.95;;;;;;;1.92;99.76;101080.53;4979097;28;20046;-53
2021/03/08 02:12:48;;;;;;;20.60;10.30;;;;;;;1.75;99.65;101079.38;4976777;28;20508;-52
2021/03/08 02:15:35;;;;;;;19.90;10.32;;;;;;;1.65;100.00;101070.31;4979050;28;20270;-55
2021/03/08 02:18:05;;;;;;;16.23;9.13;;;;;;;1.65;100.00;101070.31;4978219;28;20046;-55
2021/03/08 02:20:34;;;;;;;18.23;10.25;;;;;;;1.49;100.00;101070.06;4979023;28;20500;-52
2021/03/08 02:23:35;;;;;;;16.67;10.32;;;;;;;1.57;100.00;101079.00;4974984;28;20053;-54
2021/03/08 02:26:39;;;;;;;16.90;9.55;;;;;;;1.69;100.00;101077.31;4978565;28;20046;-51
2021/03/08 02:29:39;;;;;;;19.77;9.52;;;;;;;1.68;100.00;101084.81;4978846;28;20046;-54
2021/03/08 02:32:09;;;;;;;17.70;9.52;;;;;;;1.47;99.92;101086.75;4978717;28;20050;-57
2021/03/08 02:34:48;;;;;;;18.00;9.43;;;;;;;1.28;100.00;101092.16;4977723;28;20078;-52
2021/03/08 02:37:20;;;;;;;13.48;8.65;;;;;;;1.29;100.00;101081.31;4974933;28;20069;-51
2021/03/08 02:39:52;;;;;;;15.90;8.90;;;;;;;1.47;100.00;101092.66;4977005;28;20059;-55
2021/03/08 02:42:23;;;;;;;16.25;9.32;;;;;;;1.44;99.00;101102.56;4979791;28;20046;-57
2021/03/08 02:44:57;;;;;;;19.45;9.15;;;;;;;1.25;99.85;101109.63;4976754;28;20130;-54
2021/03/08 02:47:26;;;;;;;19.08;9.02;;;;;;;1.07;100.00;101108.34;4979905;28;20050;-54
2021/03/08 02:49:56;;;;;;;17.10;8.65;;;;;;;0.94;100.00;101110.00;4980917;28;20397;-56
2021/03/08 02:52:27;;;;;;;15.50;8.75;;;;;;;0.70;100.00;101104.09;4980036;28;20153;-54
2021/03/08 02:54:56;;;;;;;17.05;8.60;;;;;;;0.69;100.00;101099.84;4980884;28;20050;-53
2021/03/08 02:57:32;;;;;;;15.35;8.68;;;;;;;0.70;100.00;101104.09;4980939;28;20046;-55
2021/03/08 03:00:05;;;;;;;15.30;8.95;;;;;;;0.38;100.00;101098.38;4981913;28;20065;-54
2021/03/08 03:02:32;;;;;;;15.73;8.52;;;;;;;0.37;100.00;101109.19;4981683;28;20065;-54
2021/03/08 03:05:05;;;;;;;17.60;9.15;;;;;;;0.35;100.00;101108.22;4981804;28;20182;-52
2021/03/08 03:07:34;;;;;;;15.48;8.90;;;;;;;0.34;100.00;101104.84;4981475;28;20530;-54
2021/03/08 03:10:04;;;;;;;17.70;8.55;;;;;;;0.29;100.00;101100.22;4981350;28;20358;-50
2021/03/08 03:12:34;;;;;;;16.80;8.73;;;;;;;0.24;100.00;101099.91;4981582;28;20065;-54
2021/03/08 03:15:02;;;;;;;16.85;8.57;;;;;;;-0.01;100.00;101099.72;4981406;28;20053;-53
2021/03/08 03:17:32;;;;;;;18.85;8.63;;;;;;;-0.03;100.00;101107.16;4981848;28;20412;-52
2021/03/08 03:20:01;;;;;;;16.40;8.02;;;;;;;-0.03;100.00;101117.22;4981588;28;20066;-50
2021/03/08 03:22:29;;;;;;;17.33;8.13;;;;;;;-0.17;100.00;101122.88;4981888;28;20061;-52
2021/03/08 03:24:59;;;;;;;14.55;7.82;;;;;;;-0.22;100.00;101121.66;4980673;28;20038;-53
2021/03/08 03:27:28;;;;;;;16.75;8.25;;;;;;;-0.21;100.00;101120.00;4981102;28;20062;-54
2021/03/08 03:29:55;;;;;;;16.00;8.30;;;;;;;-0.26;100.00;101122.19;4981813;28;20050;-52
2021/03/08 03:32:22;;;;;;;15.65;7.70;;;;;;;-0.15;100.00;101121.34;4979358;28;20061;-52
2021/03/08 03:34:50;;;;;;;17.27;8.10;;;;;;;-0.28;100.00;101123.69;4979287;28;22177;-55
2021/03/08 03:37:23;;;;;;;16.38;7.85;;;;;;;-0.27;100.00;101122.94;4982136;28;20046;-54
2021/03/08 03:39:50;;;;;;;14.07;7.95;;;;;;;-0.21;100.00;101125.91;4980178;28;20059;-54
2021/03/08 03:42:18;;;;;;;14.95;7.50;;;;;;;-0.45;100.00;101132.47;4982283;28;20050;-55
2021/03/08 03:44:45;;;;;;;14.77;7.55;;;;;;;-0.53;100.00;101136.91;4981496;28;20079;-51
2021/03/08 03:47:13;;;;;;;22.00;7.13;;;;;;;-0.61;100.00;101139.59;4981805;28;20046;-56
2021/03/08 03:49:40;;;;;;;15.07;7.70;;;;;;;-0.66;100.00;101144.25;4979836;28;20042;-54
2021/03/08 03:52:07;;;;;;;16.88;8.45;;;;;;;-0.81;100.00;101143.09;4980329;28;20061;-54
2021/03/08 03:54:34;;;;;;;14.55;7.85;;;;;;;-0.39;100.00;101147.16;4981787;28;20046;-52
2021/03/08 03:57:08;;;;;;;13.95;7.40;;;;;;;-0.61;100.00;101157.19;4980103;28;20322;-55
2021/03/08 03:59:52;;;;;;;14.23;7.40;;;;;;;-0.51;100.00;101159.66;4980742;28;20050;-51
2021/03/08 04:02:30;;;;;;;14.18;6.80;;;;;;;-0.75;100.00;101171.22;4978643;28;20046;-50
2021/03/08 04:05:01;;;;;;;11.32;6.13;;;;;;;-0.65;100.00;101165.25;4980757;28;20121;-55
2021/03/08 04:07:33;;;;;;;17.55;6.60;;;;;;;-0.87;100.00;101166.13;4981126;28;20046;-55
2021/03/08 04:10:00;;;;;;;12.23;6.40;;;;;;;-0.89;100.00;101175.16;4983325;28;20046;-57
2021/03/08 04:12:32;;;;;;;13.05;6.78;;;;;;;-0.90;100.00;101177.56;4981009;28;20473;-53
2021/03/08 04:15:04;;;;;;;12.13;6.22;;;;;;;-0.87;100.00;101175.28;4980796;28;20047;-53
2021/03/08 04:17:35;;;;;;;10.07;5.80;;;;;;;-1.04;100.00;101171.44;4980398;28;20089;-54
2021/03/08 04:20:05;;;;;;;13.20;5.93;;;;;;;-0.93;100.00;101183.22;4980743;28;20050;-54
2021/03/08 04:22:32;;;;;;;12.40;5.47;;;;;;;-0.97;100.00;101177.81;4980895;28;20459;-50
2021/03/08 04:25:01;;;;;;;12.95;5.95;;;;;;;-1.15;100.00;101187.31;4981270;28;20050;-54
2021/03/08 04:27:30;;;;;;;15.02;6.28;;;;;;;-1.23;100.00;101194.22;4963315;28;20046;-54
2021/03/08 04:29:59;;;;;;;10.70;5.80;;;;;;;-1.26;100.00;101188.94;4979953;28;20050;-54
2021/03/08 04:32:26;;;;;;;14.13;6.68;;;;;;;-1.43;100.00;101192.63;4981884;28;20041;-56
2021/03/08 04:34:54;;;;;;;13.13;6.00;;;;;;;-1.54;100.00;101208.41;4979930;28;20051;-54
2021/03/08 04:37:21;;;;;;;10.68;5.15;;;;;;;-1.52;100.00;101199.41;4981701;28;20046;-56
2021/03/08 04:39:49;;;;;;;13.15;5.55;;;;;;;-1.45;100.00;101203.28;4980651;28;20047;-56
2021/03/08 04:42:17;;;;;;;13.65;5.85;;;;;;;-1.21;100.00;101204.38;4981516;28;20046;-52
2021/03/08 04:44:46;;;;;;;10.68;5.60;;;;;;;-1.08;100.00;101218.06;4979188;28;20054;-55
2021/03/08 04:47:17;;;;;;;11.07;5.40;;;;;;;-1.48;100.00;101216.44;4981261;28;20054;-56
2021/03/08 04:49:45;;;;;;;11.40;5.43;;;;;;;-1.52;100.00;101214.47;4979121;28;20876;-57
2021/03/08 04:52:13;;;;;;;10.20;4.72;;;;;;;-1.58;100.00;101219.84;4980990;28;20484;-56
2021/03/08 04:54:42;;;;;;;13.40;5.68;;;;;;;-1.67;100.00;101218.22;4979404;28;20046;-53
2021/03/08 04:57:12;;;;;;;11.68;5.18;;;;;;;-1.78;100.00;101218.97;4979762;28;20046;-55
2021/03/08 04:59:42;;;;;;;14.57;5.30;;;;;;;-1.99;100.00;101218.91;4978291;28;20096;-49
2021/03/08 05:02:21;;;;;;;10.10;4.95;;;;;;;-1.93;100.00;101226.09;4976426;28;20475;-54
2021/03/08 05:04:52;;;;;;;9.65;4.65;;;;;;;-1.73;100.00;101223.59;4978998;28;20130;-52
2021/03/08 05:07:23;;;;;;;14.32;4.68;;;;;;;-1.66;100.00;101228.41;4980760;28;20054;-50
2021/03/08 05:09:55;;;;;;;10.00;4.75;;;;;;;-1.92;100.00;101226.22;4976865;28;20104;-51
2021/03/08 05:12:25;;;;;;;14.48;5.88;;;;;;;-1.95;100.00;101235.09;4980261;28;20081;-55
2021/03/08 05:14:54;;;;;;;13.55;4.80;;;;;;;-1.65;100.00;101229.28;4976003;28;20113;-49
2021/03/08 05:17:23;;;;;;;9.35;5.20;;;;;;;-1.48;100.00;101233.16;4980364;28;20050;-55
2021/03/08 05:19:52;;;;;;;11.85;4.80;;;;;;;-1.45;100.00;101230.91;4978755;28;20780;-51
2021/03/08 05:22:21;;;;;;;10.40;4.95;;;;;;;-1.82;100.00;101235.41;4980865;28;20476;-54
2021/03/08 05:24:50;;;;;;;14.00;5.60;;;;;;;-1.94;100.00;101234.34;4978772;28;20460;-52
2021/03/08 05:27:18;;;;;;;13.63;4.97;;;;;;;-2.18;100.00;101244.09;4980234;28;20053;-53
2021/03/08 05:29:47;;;;;;;16.63;5.43;;;;;;;-2.32;100.00;101249.56;4978550;28;20861;-54
2021/03/08 05:32:28;;;;;;;14.02;5.40;;;;;;;-2.24;100.00;101247.72;4981439;28;20046;-50
2021/03/08 05:34:58;;;;;;;12.50;5.13;;;;;;;-2.15;100.00;101253.50;4979579;28;20042;-52
2021/03/08 05:37:26;;;;;;;10.05;5.20;;;;;;;-2.13;100.00;101257.00;4978294;28;20046;-51
2021/03/08 05:39:56;;;;;;;13.30;5.80;;;;;;;-2.21;100.00;101263.91;4978062;28;20046;-51
2021/03/08 05:42:28;;;;;;;14.07;5.20;;;;;;;-1.99;100.00;101273.25;4978683;28;20096;-51
2021/03/08 05:45:05;;;;;;;14.27;5.63;;;;;;;-2.26;100.00;101266.78;4978521;28;20050;-49
2021/03/08 05:48:06;;;;;;;16.35;5.57;;;;;;;-2.36;100.00;101268.50;4978925;28;20053;-47
2021/03/08 05:50:47;;;;;;;14.43;5.10;;;;;;;-1.94;100.00;101272.91;4978430;28;20038;-54
2021/03/08 05:53:23;;;;;;;16.27;6.03;;;;;;;-2.35;100.00;101270.25;4976035;28;20100;-45
2021/03/08 05:56:01;;;;;;;;;;;;;;;-2.06;100.00;101267.72;4978064;28;20050;-50
2021/03/08 05:58:31;;;;;;;9.23;5.07;;;;;;;-2.26;100.00;101272.66;4978498;28;19929;-48
2021/03/08 06:01:29;;;;;;;14.52;5.55;;;;;;;-2.29;100.00;101277.41;4979856;28;20125;-49
2021/03/08 06:04:27;;;;;;;10.98;5.70;;;;;;;-2.31;100.00;101284.81;4978593;28;20049;-50
2021/03/08 06:07:32;;;;;;;14.52;5.30;;;;;;;-1.63;100.00;101291.41;4979369;28;20097;-51
2021/03/08 06:10:04;;;;;;;13.63;5.82;;;;;;;-1.90;100.00;101286.56;4977932;28;20050;-47
2021/03/08 06:12:38;;;;;;;14.37;6.17;;;;;;;-1.96;100.00;101291.06;4978135;28;20479;-51
2021/03/08 06:15:22;;;;;;;17.48;6.32;;;;;;;-2.05;100.00;101294.56;4974678;28;20864;-49
2021/03/08 06:18:18;;;;;;;17.42;6.88;;;;;;;-2.02;100.00;101300.59;4978463;28;20055;-50
2021/03/08 06:20:56;;;;;;;11.55;5.90;;;;;;;-2.05;100.00;101304.59;4979150;28;20160;-49
2021/03/08 06:23:26;;;;;;;11.50;6.03;;;;;;;-2.06;100.00;101309.50;4978128;28;20046;-45
2021/03/08 06:25:55;;;;;;;11.23;6.35;;;;;;;-2.09;100.00;101320.13;4977176;28;20046;-49
2021/03/08 06:28:33;;;;;;;15.13;6.53;;;;;;;-1.94;100.00;101323.09;4978161;28;20074;-48
2021/03/08 06:31:09;;;;;;;15.95;6.70;;;;;;;-1.84;100.00;101333.16;4981960;28;20042;-48
2021/03/08 06:33:51;;;;;;;15.35;6.20;;;;;;;-1.87;100.00;101332.00;4977076;28;20783;-53
2021/03/08 06:36:18;;;;;;;14.27;6.30;;;;;;;-1.81;100.00;101337.53;4977881;28;20081;-48
2021/03/08 06:38:45;;;;;;;13.30;6.93;;;;;;;-1.58;100.00;101342.88;4978277;28;20563;-51
2021/03/08 06:41:11;;;;;;;11.82;6.05;;;;;;;-1.16;100.00;101353.88;4979249;28;20053;-48
2021/03/08 06:43:39;;;;;;;12.20;6.13;;;;;;;-1.11;100.00;101353.53;4977380;28;20050;-47
2021/03/08 06:46:06;;;;;;;10.82;5.38;;;;;;;-0.52;100.00;101354.97;4979172;28;20046;-49
2021/03/08 06:48:33;;;;;;;13.43;6.28;;;;;;;-0.81;99.84;101354.28;4978153;28;20703;-48
2021/03/08 06:51:14;;;;;;;11.15;6.15;;;;;;;-0.95;100.00;101355.66;4978720;28;20043;-49
2021/03/08 06:53:41;;;;;;;13.85;5.63;;;;;;;-0.61;100.00;101354.25;4970521;28;20057;-49
2021/03/08 06:56:19;;;;;;;11.57;6.15;;;;;;;-0.85;100.00;101362.31;4978239;28;20558;-46
2021/03/08 06:59:13;;;;;;;12.38;6.05;;;;;;;-0.72;99.68;101366.72;4976518;28;20057;-53
2021/03/08 07:01:41;;;;;;;12.13;5.85;;;;;;;-0.85;99.61;101368.22;4975565;28;20562;-51
2021/03/08 07:04:19;;;;;;;11.05;5.72;;;;;;;-0.82;99.88;101368.47;4974434;28;20840;-52
2021/03/08 07:07:13;;;;;;;12.30;6.45;;;;;;;-0.97;100.00;101383.91;4978078;28;20137;-51
2021/03/08 07:09:50;;;;;;;11.23;5.53;;;;;;;-0.20;98.41;101378.44;4974326;28;20765;-48
2021/03/08 07:12:18;;;;;;;14.60;5.57;;;;;;;0.01;95.20;101385.19;4975878;28;20154;-49
2021/03/08 07:15:03;;;;;;;12.77;5.07;;;;;;;-0.10;94.25;101380.94;4978044;28;20055;-51
2021/03/08 07:17:34;;;;;;;11.07;5.00;;;;;;;-0.18;96.18;101389.53;4976034;28;20044;-49
2021/03/08 07:20:10;;;;;;;9.82;5.07;;;;;;;-0.02;94.85;101395.00;4978762;28;20047;-45
2021/03/08 07:22:47;;;;;;;8.57;5.07;;;;;;;-0.53;96.63;101397.63;4977425;28;20060;-45
2021/03/08 07:25:26;;;;;;;12.13;4.95;;;;;;;0.00;95.07;101403.59;4969040;28;20050;-49
2021/03/08 07:27:56;;;;;;;9.00;4.57;;;;;;;-0.02;94.62;101405.97;4973679;28;20051;-48
2021/03/08 07:30:24;;;;;;;10.93;4.53;;;;;;;-0.23;95.16;101406.78;4978012;28;20762;-49
2021/03/08 07:33:03;;;;;;;14.93;6.72;;;;;;;0.33;92.75;101404.47;4978109;28;20105;-45
2021/03/08 07:35:46;;;;;;;9.80;5.05;;;;;;;-0.08;92.63;101410.50;4980122;28;20492;-49
2021/03/08 07:38:32;;;;;;;7.00;3.78;;;;;;;0.02;91.94;101414.63;4981093;28;20050;-49
2021/03/08 07:41:13;;;;;;;79.90;51.20;;;;;;;0.94;88.32;101414.22;4981413;28;20783;-47
2021/03/08 07:43:47;;;;;;;26.25;15.57;;;;;;;0.67;87.90;101423.06;4980157;28;20046;-51
2021/03/08 07:46:26;;;;;;;11.40;6.38;;;;;;;0.75;86.29;101422.00;4979950;28;20046;-48
2021/03/08 07:48:55;;;;;;;10.00;4.68;;;;;;;1.11;83.51;101425.53;4980087;28;20424;-50
2021/03/08 07:51:23;;;;;;;8.05;3.25;;;;;;;0.62;86.44;101430.25;4979851;28;20046;-51
2021/03/08 07:54:06;;;;;;;6.03;3.08;;;;;;;0.74;85.43;101430.34;4978970;28;20046;-52
2021/03/08 07:56:34;;;;;;;14.63;2.97;;;;;;;0.83;85.71;101431.00;4982615;28;20415;-49
2021/03/08 07:59:01;;;;;;;7.93;3.47;;;;;;;0.92;83.07;101429.19;4981489;28;20054;-46
2021/03/08 08:01:28;;;;;;;7.60;3.65;;;;;;;1.40;82.16;101432.78;4982286;28;20475;-53
2021/03/08 08:03:55;;;;;;;7.63;3.40;;;;;;;1.53;80.13;101431.28;4980632;28;20070;-52
2021/03/08 08:06:24;;;;;;;5.45;2.90;;;;;;;2.01;78.94;101429.69;4979437;28;20056;-51
2021/03/08 08:08:55;;;;;;;3.67;2.67;;;;;;;4.03;71.07;101436.66;4979972;28;20054;-52
2021/03/08 08:11:27;;;;;;;6.60;2.53;;;;;;;5.54;64.85;101436.50;4982075;28;20619;-47
2021/03/08 08:13:54;;;;;;;5.00;2.20;;;;;;;5.97;63.34;101441.56;4980538;28;20137;-48
2021/03/08 08:16:23;;;;;;;4.32;2.00;;;;;;;7.42;57.95;101449.31;4981841;28;20070;-50
2021/03/08 08:18:57;;;;;;;5.68;1.92;;;;;;;7.16;56.76;101450.50;4979892;28;20055;-48
2021/03/08 08:21:25;;;;;;;2.65;1.80;;;;;;;6.12;56.74;101453.44;4980501;28;20580;-53
2021/03/08 08:23:59;;;;;;;4.07;1.90;;;;;;;5.14;59.80;101454.50;4979715;28;20134;-52
2021/03/08 08:26:26;;;;;;;4.13;2.22;;;;;;;5.66;58.81;101444.84;4980601;28;20074;-48
2021/03/08 08:28:57;;;;;;;3.42;2.35;;;;;;;4.48;63.43;101455.53;4980776;28;20069;-47
2021/03/08 08:31:23;;;;;;;6.38;2.25;;;;;;;4.71;61.45;101451.88;4977997;28;20050;-50
2021/03/08 08:33:50;;;;;;;4.68;2.28;;;;;;;4.77;62.48;101449.75;4980734;28;20070;-52
2021/03/08 08:36:26;;;;;;;4.10;2.13;;;;;;;6.78;55.79;101456.16;4982774;28;20141;-48
2021/03/08 08:38:52;;;;;;;3.75;2.13;;;;;;;6.43;55.45;101462.78;4979627;28;20678;-49
2021/03/08 08:41:30;;;;;;;3.67;1.85;;;;;;;5.93;56.56;101458.28;4981789;28;20047;-51
2021/03/08 08:44:09;;;;;;;3.08;2.22;;;;;;;6.02;58.16;101463.03;4981292;28;20038;-49
2021/03/08 08:46:39;;;;;;;2.97;1.80;;;;;;;5.36;56.18;101460.06;4975562;28;20047;-49
2021/03/08 08:49:10;;;;;;;4.25;1.83;;;;;;;5.23;55.54;101456.72;4981612;28;20050;-52
2021/03/08 08:51:59;;;;;;;3.00;1.38;;;;;;;4.61;58.94;101452.09;4979770;28;20050;-45
2021/03/08 08:54:26;;;;;;;4.25;1.58;;;;;;;4.28;60.43;101461.91;4980357;28;20117;-46
2021/03/08 08:57:07;;;;;;;4.95;1.70;;;;;;;4.00;62.02;101460.94;4979108;28;20061;-47
2021/03/08 08:59:35;;;;;;;2.70;1.40;;;;;;;4.15;59.50;101468.63;4979448;28;20046;-50
2021/03/08 09:02:12;;;;;;;4.93;2.00;;;;;;;4.52;58.06;101469.28;4982916;28;20047;-48
2021/03/08 09:04:39;;;;;;;2.72;1.48;;;;;;;4.57;55.79;101471.31;4979732;28;20095;-51
2021/03/08 09:07:26;;;;;;;3.88;1.90;;;;;;;4.30;58.01;101473.03;4980763;28;20050;-50
2021/03/08 09:09:54;;;;;;;1.98;1.00;;;;;;;4.05;57.80;101469.69;4979306;28;20153;-49
2021/03/08 09:12:38;;;;;;;3.53;1.05;;;;;;;3.58;56.63;101472.56;4978534;28;20054;-44
2021/03/08 09:15:06;;;;;;;2.97;1.20;;;;;;;4.10;56.64;101478.47;4981112;28;20527;-50
2021/03/08 09:17:46;;;;;;;2.83;0.88;;;;;;;3.41;54.68;101475.63;4980364;28;20057;-47
2021/03/08 09:20:13;;;;;;;2.67;0.73;;;;;;;3.88;56.31;101475.31;4981439;28;20074;-48
2021/03/08 09:22:49;;;;;;;3.17;0.95;;;;;;;3.95;53.95;101472.44;4978685;28;20079;-52
2021/03/08 09:25:19;;;;;;;3.22;0.95;;;;;;;4.15;54.60;101476.25;4980439;28;20046;-51
2021/03/08 09:27:48;;;;;;;2.15;0.82;;;;;;;4.13;53.05;101488.81;4975752;28;20042;-52
2021/03/08 09:30:20;;;;;;;1.95;0.90;;;;;;;3.90;53.68;101473.78;4981035;28;20046;-48
2021/03/08 09:32:56;;;;;;;4.05;1.00;;;;;;;3.77;52.67;101488.19;4979029;28;20417;-51
2021/03/08 09:35:31;;;;;;;1.95;0.80;;;;;;;3.91;51.84;101478.06;4977813;28;20050;-48
2021/03/08 09:38:04;;;;;;;3.35;0.70;;;;;;;4.22;52.06;101486.88;4979708;28;20046;-48
2021/03/08 09:40:33;;;;;;;1.85;0.52;;;;;;;4.27;51.96;101487.16;4981697;28;20038;-45
2021/03/08 09:43:01;;;;;;;1.95;0.93;;;;;;;4.21;50.55;101482.59;4979693;28;20121;-44
2021/03/08 09:45:33;;;;;;;2.72;0.80;;;;;;;4.74;52.00;101487.59;4980386;28;20046;-50
2021/03/08 09:48:03;;;;;;;1.63;0.70;;;;;;;6.06;48.64;101490.38;4979443;28;20043;-44
2021/03/08 09:50:39;;;;;;;4.82;1.67;;;;;;;6.53;45.24;101489.59;4979392;28;20054;-50
2021/03/08 09:53:06;;;;;;;1.73;0.80;;;;;;;7.11;43.50;101495.25;4980272;28;20077;-51
2021/03/08 09:55:34;;;;;;;1.88;0.70;;;;;;;7.43;40.58;101490.94;4979185;28;20074;-53
2021/03/08 09:58:15;;;;;;;1.55;0.90;;;;;;;7.76;39.61;101494.31;4979695;28;20051;-50
2021/03/08 10:00:52;;;;;;;2.50;1.42;;;;;;;7.52;39.76;101493.97;4978500;28;20539;-54
2021/03/08 10:03:18;;;;;;;1.67;0.80;;;;;;;6.79;41.76;101485.91;4975559;28;20101;-50
2021/03/08 10:05:50;;;;;;;1.52;0.63;;;;;;;8.02;38.63;101493.06;4978162;28;20587;-46
2021/03/08 10:08:20;;;;;;;2.67;0.68;;;;;;;7.66;40.35;101498.09;4980824;28;20050;-48
2021/03/08 10:10:53;;;;;;;0.77;0.45;;;;;;;6.51;40.94;101493.72;4978154;28;20054;-49
2021/03/08 10:13:29;;;;;;;2.38;0.52;;;;;;;7.17;40.30;101500.69;4977483;28;20050;-53
2021/03/08 10:15:58;;;;;;;;;;;;;;;7.91;35.55;101500.19;4979462;28;20130;-51
2021/03/08 10:18:29;;;;;;;1.20;0.60;;;;;;;8.03;37.98;101508.44;4979984;28;20376;-52
2021/03/08 10:20:58;;;;;;;1.77;0.40;;;;;;;7.64;37.76;101505.66;4978766;28;20043;-49
2021/03/08 10:23:27;;;;;;;2.30;0.50;;;;;;;7.69;36.53;101498.25;4979501;28;20058;-52
2021/03/08 10:26:15;;;;;;;3.33;0.40;;;;;;;7.82;37.36;101500.63;4977996;28;20141;-51
2021/03/08 10:28:51;;;;;;;1.00;0.32;;;;;;;9.32;34.73;101506.78;4977604;28;20505;-47
2021/03/08 10:31:20;;;;;;;1.60;0.45;;;;;;;11.05;30.44;101504.44;4975083;28;20050;-52
2021/03/08 10:33:54;;;;;;;1.33;0.40;;;;;;;10.44;31.67;101499.53;4976108;28;20043;-48
2021/03/08 10:36:23;;;;;;;1.38;0.50;;;;;;;12.24;30.73;101499.97;4980355;28;20397;-52
2021/03/08 10:39:03;;;;;;;0.60;0.38;;;;;;;15.28;25.06;101514.75;4976182;28;20047;-51
2021/03/08 10:41:31;;;;;;;1.95;0.50;;;;;;;17.27;22.56;101507.56;4977110;28;20504;-50
2021/03/08 10:43:59;;;;;;;2.83;0.63;;;;;;;12.92;26.34;101505.47;4977905;28;20051;-51
2021/03/08 10:46:34;;;;;;;1.77;0.70;;;;;;;16.30;24.15;101510.53;4979517;28;20046;-50
2021/03/08 10:49:04;;;;;;;1.52;0.52;;;;;;;17.91;21.83;101518.59;4979161;28;20137;-50
2021/03/08 10:51:34;;;;;;;1.13;0.70;;;;;;;17.39;21.19;101509.41;4979179;28;20045;-51
2021/03/08 10:54:05;;;;;;;1.70;0.60;;;;;;;19.77;18.50;101520.44;4978676;28;20046;-48
2021/03/08 10:56:34;;;;;;;2.45;0.80;;;;;;;20.63;19.29;101531.69;4978954;28;20054;-55
2021/03/08 10:59:02;;;;;;;1.52;0.47;;;;;;;21.67;16.42;101526.03;4978980;28;20103;-54
2021/03/08 11:01:30;;;;;;;1.25;0.93;;;;;;;17.00;19.92;101516.72;4980002;28;20069;-54
2021/03/08 11:03:57;;;;;;;1.65;0.60;;;;;;;17.40;22.63;101519.78;4978692;28;20496;-52
2021/03/08 11:06:24;;;;;;;1.48;0.63;;;;;;;19.02;21.26;101523.69;4977854;28;20397;-48
2021/03/08 11:08:59;;;;;;;0.90;0.60;;;;;;;22.28;17.44;101528.19;4980789;28;20058;-51
2021/03/08 11:11:29;;;;;;;1.10;0.80;;;;;;;15.73;21.88;101516.50;4981319;28;20050;-51
2021/03/08 11:14:06;;;;;;;1.80;0.70;;;;;;;16.65;22.38;101515.38;4982129;28;20047;-53
2021/03/08 11:16:35;;;;;;;1.77;0.73;;;;;;;18.30;20.99;101520.66;4978345;28;20043;-50
2021/03/08 11:19:15;;;;;;;2.22;1.10;;;;;;;16.26;20.46;101524.25;4983430;28;20106;-50
2021/03/08 11:21:43;;;;;;;2.42;1.00;;;;;;;18.42;20.27;101522.44;4981029;28;20050;-52
2021/03/08 11:24:17;;;;;;;4.65;1.02;;;;;;;19.75;18.09;101522.19;4968585;28;20046;-49
2021/03/08 11:27:11;;;;;;;3.65;1.27;;;;;;;19.66;17.94;101522.16;4977191;28;20046;-52
2021/03/08 11:29:39;;;;;;;1.35;0.65;;;;;;;20.95;18.21;101520.31;4981241;28;20069;-54
2021/03/08 11:32:08;;;;;;;1.08;0.40;;;;;;;22.98;14.83;101526.59;4982761;28;20050;-51
2021/03/08 11:34:43;;;;;;;3.03;0.80;;;;;;;23.57;13.89;101519.69;4981982;28;20056;-52
2021/03/08 11:37:17;;;;;;;1.88;0.63;;;;;;;19.70;17.76;101521.31;4982511;28;20130;-54
2021/03/08 11:39:47;;;;;;;1.30;0.50;;;;;;;22.18;15.75;101516.09;4980906;28;20128;-54
2021/03/08 11:42:16;;;;;;;1.08;0.77;;;;;;;20.68;17.32;101516.06;4983205;28;20085;-49